Data for 01/07/2016

Time Sea-Level Adjusted Pressure Absolute Pressure Temperature Relative Humidity Dew Point   
(mb) (inHg) (mb) (inHg) (C) (F) (%) (C) (F)
00:05 1008 29.77 838 24.75 -2.4 27.6 84 -4.8 23.3
00:10 1008 29.77 838 24.75 -2.4 27.7 84 -4.8 23.4
00:15 1008 29.77 838 24.75 -2.4 27.7 83 -4.8 23.3
00:20 1009 29.8 838 24.75 -2.5 27.4 84 -4.9 23.2
00:25 1009 29.8 838 24.75 -2.7 27.1 84 -5.1 22.9
00:30 1009 29.8 838 24.75 -2.9 26.8 85 -5.1 22.8
00:35 1008 29.77 838 24.75 -3 26.6 85 -5.1 22.7
00:40 1008 29.77 838 24.75 -3.1 26.5 85 -5.2 22.7
00:45 1008 29.77 838 24.75 -3.1 26.4 85 -5.3 22.4
00:50 1008 29.77 838 24.75 -3.3 26.1 86 -5.2 22.6
00:55 1008 29.77 838 24.75 -3.3 26 87 -5.2 22.7
01:00 1008 29.77 838 24.75 -3.3 26 88 -5.1 22.8
01:05 1008 29.77 838 24.75 -3.3 26.1 88 -5 23
01:10 1008 29.77 838 24.75 -3.2 26.2 87 -5 23
01:15 1008 29.77 838 24.75 -3.1 26.5 87 -4.9 23.2
01:20 1009 29.8 838 24.75 -2.9 26.8 86 -4.9 23.3
01:25 1008 29.77 838 24.75 -2.9 26.8 87 -4.8 23.3
01:30 1008 29.77 838 24.75 -2.8 27 86 -4.9 23.2
01:35 1008 29.77 838 24.75 -2.8 26.9 86 -4.9 23.2
01:40 1008 29.77 838 24.75 -2.9 26.8 86 -5 23
01:45 1008 29.77 838 24.75 -2.9 26.8 86 -4.9 23.1
01:50 1009 29.8 838 24.75 -2.9 26.8 85 -5 23
01:55 1009 29.8 838 24.75 -3 26.5 85 -5.1 22.7
02:00 1009 29.8 838 24.75 -3 26.5 86 -5.1 22.8
02:05 1009 29.8 838 24.75 -2.9 26.8 86 -5 23
02:10 1009 29.8 838 24.75 -2.7 27.1 85 -4.9 23.2
02:15 1009 29.8 838 24.75 -2.6 27.3 85 -4.8 23.3
02:20 1009 29.8 838 24.75 -2.7 27.2 85 -4.9 23.3
02:25 1009 29.8 838 24.75 -2.6 27.3 85 -4.8 23.4
02:30 1009 29.8 838 24.75 -2.5 27.6 85 -4.7 23.6
02:35 1009 29.8 838 24.75 -2.4 27.8 84 -4.7 23.6
02:40 1009 29.8 838 24.75 -2.4 27.7 85 -4.6 23.7
02:45 1009 29.8 838 24.75 -2.4 27.7 85 -4.6 23.8
02:50 1009 29.8 838 24.75 -2.5 27.5 87 -4.4 24.1
02:55 1009 29.8 838 24.75 -2.6 27.3 87 -4.4 24
03:00 1009 29.8 838 24.75 -2.8 27 88 -4.5 24
03:05 1009 29.8 838 24.75 -2.9 26.8 89 -4.4 24
03:10 1009 29.8 838 24.75 -2.9 26.8 90 -4.3 24.3
03:15 1009 29.8 838 24.75 -2.9 26.8 90 -4.3 24.3
03:20 1009 29.8 838 24.75 -2.9 26.8 91 -4.2 24.5
03:25 1009 29.8 838 24.75 -2.8 26.9 91 -4.1 24.5
03:30 1009 29.8 838 24.75 -2.8 26.9 91 -4.1 24.6
03:35 1009 29.8 838 24.75 -2.8 27 91 -4.1 24.6
03:40 1009 29.8 838 24.75 -2.8 27 91 -4 24.7
03:45 1009 29.8 838 24.75 -2.7 27.2 91 -4 24.9
03:50 1009 29.8 838 24.75 -2.6 27.2 91 -3.9 24.9
03:55 1009 29.8 838 24.75 -2.6 27.4 91 -3.9 25
04:00 1009 29.8 838 24.75 -2.5 27.4 90 -3.9 25
04:05 1009 29.8 838 24.75 -2.5 27.4 90 -3.9 24.9
04:10 1009 29.8 838 24.75 -2.6 27.4 90 -3.9 25
04:15 1009 29.8 838 24.75 -2.5 27.5 90 -3.9 25
04:20 1009 29.8 838 24.75 -2.5 27.5 91 -3.8 25.1
04:25 1009 29.8 838 24.75 -2.5 27.5 91 -3.8 25.2
04:30 1009 29.8 838 24.75 -2.4 27.6 91 -3.7 25.3
04:35 1009 29.8 838 24.75 -2.5 27.6 91 -3.7 25.3
04:40 1009 29.8 838 24.75 -2.5 27.5 91 -3.7 25.3
04:45 1009 29.8 838 24.75 -2.6 27.3 92 -3.8 25.2
04:50 1009 29.8 838 24.75 -2.6 27.3 92 -3.8 25.2
04:55 1009 29.8 838 24.75 -2.6 27.3 92 -3.7 25.3
05:00 1009 29.8 838 24.75 -2.6 27.3 92 -3.7 25.3
05:05 1009 29.8 838 24.75 -2.6 27.3 92 -3.7 25.3
05:10 1009 29.8 838 24.75 -2.6 27.3 92 -3.7 25.4
05:15 1009 29.8 838 24.75 -2.6 27.3 92 -3.7 25.3
05:20 1009 29.8 838 24.75 -2.7 27.2 92 -3.8 25.2
05:25 1009 29.8 838 24.75 -2.7 27.2 92 -3.8 25.2
05:30 1009 29.8 838 24.75 -2.8 26.9 92 -4 24.8
05:35 1009 29.8 838 24.75 -3.1 26.5 93 -4.1 24.7
05:40 1009 29.8 838 24.75 -3 26.6 93 -4 24.8
05:45 1009 29.8 838 24.75 -2.9 26.7 93 -3.9 24.9
05:50 1009 29.8 838 24.75 -3 26.6 93 -4 24.8
05:55 1009 29.8 838 24.75 -3 26.6 93 -4 24.8
06:00 1009 29.8 838 24.75 -3 26.6 93 -4 24.8
06:05 1009 29.8 838 24.75 -3.1 26.5 93 -4.1 24.6
06:10 1009 29.8 838 24.75 -3.1 26.4 93 -4.1 24.6
06:15 1009 29.8 838 24.75 -3 26.6 93 -4 24.8
06:20 1009 29.8 838 24.75 -3 26.6 93 -4 24.7
06:25 1009 29.8 838 24.75 -3 26.6 92 -4.1 24.7
06:30 1009 29.8 838 24.75 -3 26.6 92 -4.1 24.6
06:35 1009 29.8 838 24.75 -3.1 26.5 92 -4.1 24.6
06:40 1009 29.8 838 24.75 -3 26.5 92 -4.1 24.6
06:45 1009 29.8 838 24.75 -3.1 26.4 92 -4.2 24.5
06:50 1009 29.8 838 24.75 -3.1 26.4 93 -4.2 24.5
06:55 1009 29.8 838 24.75 -3.1 26.4 93 -4.2 24.5
07:00 1009 29.8 838 24.75 -3.1 26.3 93 -4.2 24.5
07:05 1009 29.8 838 24.75 -3.1 26.4 93 -4.1 24.6
07:10 1009 29.8 838 24.75 -3.1 26.5 93 -4.1 24.7
07:15 1009 29.8 838 24.75 -3.1 26.5 93 -4.1 24.7
07:20 1009 29.8 838 24.75 -3 26.5 93 -4.1 24.7
07:25 1009 29.8 839 24.78 -2.9 26.7 93 -3.9 24.9
07:30 1009 29.8 839 24.78 -2.9 26.8 93 -3.9 25
07:35 1009 29.8 839 24.78 -2.8 26.9 93 -3.9 25
07:40 1009 29.8 839 24.78 -2.9 26.9 92 -3.9 25
07:45 1009 29.8 839 24.78 -2.9 26.8 92 -4 24.8
07:50 1010 29.83 839 24.78 -2.9 26.7 92 -4.1 24.6
07:55 1010 29.83 839 24.78 -3 26.5 92 -4.2 24.4
08:00 1010 29.83 839 24.78 -3.1 26.5 92 -4.3 24.3
08:05 1010 29.83 839 24.78 -3.1 26.4 91 -4.4 24.2
08:10 1010 29.83 839 24.78 -3.2 26.2 91 -4.4 24
08:15 1010 29.83 839 24.78 -3.3 26.1 91 -4.5 23.9
08:20 1010 29.83 839 24.78 -3.4 25.9 91 -4.6 23.7
08:25 1010 29.83 839 24.78 -3.4 25.8 92 -4.6 23.7
08:30 1010 29.83 839 24.78 -3.4 25.8 92 -4.6 23.8
08:35 1010 29.83 839 24.78 -3.4 25.9 92 -4.5 23.8
08:40 1010 29.83 839 24.78 -3.4 25.9 92 -4.5 23.9
08:45 1010 29.83 839 24.78 -3.4 25.8 92 -4.5 23.8
08:50 1010 29.83 839 24.78 -3.5 25.8 92 -4.6 23.8
08:55 1010 29.83 839 24.78 -3.6 25.6 93 -4.6 23.7
09:00 1010 29.83 839 24.78 -3.5 25.7 93 -4.5 23.9
09:05 1010 29.83 839 24.78 -3.5 25.8 93 -4.5 23.9
09:10 1010 29.83 839 24.78 -3.5 25.7 92 -4.6 23.8
09:15 1010 29.83 839 24.78 -3.5 25.7 92 -4.6 23.7
09:20 1010 29.83 839 24.78 -3.5 25.7 92 -4.6 23.7
09:25 1010 29.83 839 24.78 -3.5 25.7 92 -4.6 23.7
09:30 1010 29.83 839 24.78 -3.5 25.7 92 -4.6 23.6
09:35 1010 29.83 839 24.78 -3.5 25.7 92 -4.6 23.7
09:40 1010 29.83 839 24.78 -3.5 25.7 92 -4.6 23.7
09:45 1010 29.83 839 24.78 -3.5 25.7 91 -4.8 23.4
09:50 1010 29.83 839 24.78 -3.6 25.5 91 -4.8 23.3
09:55 1010 29.83 839 24.78 -3.6 25.5 91 -4.8 23.4
10:00 1010 29.83 840 24.81 -3.6 25.6 91 -4.9 23.2
10:05 1010 29.83 840 24.81 -3.6 25.5 91 -4.9 23.1
10:10 1010 29.83 840 24.81 -3.6 25.6 90 -5 23.1
10:15 1010 29.83 840 24.81 -3.6 25.6 90 -5 23.1
10:20 1010 29.83 840 24.81 -3.6 25.6 90 -5 23
10:25 1011 29.85 840 24.81 -3.5 25.6 90 -4.9 23.1
10:30 1011 29.85 840 24.81 -3.5 25.7 90 -4.9 23.1
10:35 1011 29.85 840 24.81 -3.4 25.8 90 -4.9 23.1
10:40 1011 29.85 840 24.81 -3.4 25.9 89 -5 23.1
10:45 1011 29.85 840 24.81 -3.3 26.1 87 -5.1 22.8
10:50 1011 29.85 840 24.81 -3.3 26.1 87 -5.1 22.7
10:55 1011 29.85 840 24.81 -3.3 26.1 87 -5.1 22.7
11:00 1011 29.85 840 24.81 -3.2 26.3 86 -5.1 22.8
11:05 1011 29.85 840 24.81 -3.1 26.4 86 -5.2 22.7
11:10 1011 29.85 840 24.81 -3.1 26.4 85 -5.3 22.5
11:15 1011 29.85 840 24.81 -3.3 26.1 85 -5.4 22.2
11:20 1011 29.85 840 24.81 -3.3 26 85 -5.5 22.1
11:25 1011 29.85 840 24.81 -3.3 26 85 -5.4 22.2
11:30 1011 29.85 840 24.81 -3.3 26.1 85 -5.5 22.1
11:35 1011 29.85 841 24.83 -3.2 26.2 84 -5.5 22.1
11:40 1011 29.85 841 24.83 -3.1 26.3 84 -5.5 22.1
11:45 1011 29.85 841 24.83 -3.1 26.5 84 -5.5 22.1
11:50 1011 29.85 841 24.83 -3 26.5 83 -5.6 22
11:55 1011 29.85 841 24.83 -3.1 26.4 83 -5.6 22
12:00 1011 29.85 841 24.83 -3.1 26.5 83 -5.6 21.9
12:05 1011 29.85 841 24.83 -3.2 26.3 83 -5.6 21.9
12:10 1011 29.85 841 24.83 -3.1 26.4 82 -5.8 21.6
12:15 1011 29.85 841 24.83 -3.3 26.1 83 -5.8 21.5
12:20 1011 29.85 841 24.83 -3.3 26.1 83 -5.8 21.5
12:25 1011 29.85 841 24.83 -3.3 26.1 82 -5.9 21.4
12:30 1011 29.85 840 24.81 -3.3 26 82 -6.1 21.1
12:35 1011 29.85 840 24.81 -3.3 26 82 -6 21.1
12:40 1011 29.85 840 24.81 -3.4 25.9 81 -6.2 20.9
12:45 1011 29.85 840 24.81 -3.4 25.8 81 -6.3 20.7
12:50 1011 29.85 840 24.81 -3.4 25.8 82 -6.2 20.9
12:55 1011 29.85 840 24.81 -3.4 25.9 81 -6.2 20.8
13:00 1011 29.85 840 24.81 -3.5 25.8 81 -6.2 20.8
13:05 1011 29.85 841 24.83 -3.5 25.8 81 -6.3 20.6
13:10 1011 29.85 841 24.83 -3.6 25.5 81 -6.5 20.4
13:15 1011 29.85 841 24.83 -3.9 24.9 81 -6.7 19.9
13:20 1011 29.85 841 24.83 -4 24.7 81 -6.8 19.7
13:25 1011 29.85 841 24.83 -4.2 24.5 81 -7 19.5
13:30 1011 29.85 841 24.83 -4.2 24.4 81 -7 19.3
13:35 1011 29.85 841 24.83 -4.2 24.4 82 -6.9 19.6
13:40 1011 29.85 841 24.83 -4.2 24.4 81 -7 19.4
13:45 1011 29.85 841 24.83 -4.3 24.3 82 -6.9 19.5
13:50 1011 29.85 841 24.83 -4.3 24.2 81 -7.1 19.1
13:55 1011 29.85 841 24.83 -4.4 24 81 -7.2 19.1
14:00 1011 29.85 841 24.83 -4.3 24.2 81 -7.2 19.1
14:05 1011 29.85 841 24.83 -4.2 24.4 81 -7 19.5
14:10 1011 29.85 841 24.83 -4.3 24.3 80 -7.3 18.9
14:15 1011 29.85 841 24.83 -4.4 24 80 -7.3 18.8
14:20 1011 29.85 841 24.83 -4.5 23.8 81 -7.4 18.7
14:25 1011 29.85 841 24.83 -4.7 23.6 81 -7.4 18.7
14:30 1011 29.85 841 24.83 -4.8 23.3 82 -7.4 18.6
14:35 1011 29.85 841 24.83 -4.8 23.3 83 -7.4 18.7
14:40 1012 29.88 841 24.83 -4.8 23.4 82 -7.4 18.6
14:45 1012 29.88 841 24.83 -4.9 23.1 83 -7.4 18.7
14:50 1012 29.88 841 24.83 -5 23.1 83 -7.4 18.7
14:55 1012 29.88 841 24.83 -4.9 23.1 82 -7.5 18.5
15:00 1012 29.88 841 24.83 -5.1 22.7 83 -7.7 18.2
15:05 1012 29.88 841 24.83 -5.4 22.3 84 -7.7 18.1
15:10 1012 29.88 841 24.83 -5.5 22.2 84 -7.8 18
15:15 1012 29.88 841 24.83 -5.4 22.2 83 -7.9 17.8
15:20 1012 29.88 841 24.83 -5.3 22.5 82 -7.9 17.8
15:25 1012 29.88 841 24.83 -5.3 22.5 82 -7.8 17.9
15:30 1012 29.88 841 24.83 -5.4 22.4 82 -8 17.6
15:35 1012 29.88 841 24.83 -5.5 22.2 82 -8.1 17.5
15:40 1012 29.88 841 24.83 -5.5 22.1 81 -8.2 17.2
15:45 1012 29.88 841 24.83 -5.6 22 82 -8.2 17.2
15:50 1012 29.88 841 24.83 -5.6 21.9 82 -8.3 17.1
15:55 1012 29.88 841 24.83 -5.6 21.9 82 -8.2 17.2
16:00 1012 29.88 841 24.83 -5.6 21.9 82 -8.2 17.2
16:05 1012 29.88 842 24.86 -5.6 21.9 83 -8.1 17.4
16:10 1012 29.88 842 24.86 -5.5 22.2 82 -8.1 17.5
16:15 1012 29.88 842 24.86 -5.4 22.2 81 -8.1 17.4
16:20 1013 29.91 842 24.86 -5.6 22 83 -8.1 17.4
16:25 1013 29.91 842 24.86 -5.5 22.1 82 -8.1 17.5
16:30 1013 29.91 842 24.86 -5.4 22.2 82 -8.1 17.5
16:35 1013 29.91 842 24.86 -5.5 22.2 82 -8 17.5
16:40 1013 29.91 842 24.86 -5.4 22.3 82 -8 17.6
16:45 1013 29.91 842 24.86 -5.4 22.3 81 -8.1 17.4
16:50 1013 29.91 842 24.86 -5.5 22.1 81 -8.3 17
16:55 1013 29.91 842 24.86 -5.6 21.9 81 -8.3 17.1
17:00 1013 29.91 842 24.86 -5.7 21.7 80 -8.6 16.5
17:05 1013 29.91 842 24.86 -5.9 21.3 81 -8.7 16.4
17:10 1013 29.91 842 24.86 -6.1 21.1 81 -8.8 16.2
17:15 1013 29.91 842 24.86 -6.2 20.8 82 -8.8 16.2
17:20 1013 29.91 843 24.89 -6.2 20.8 82 -8.9 16
17:25 1013 29.91 843 24.89 -6.3 20.7 81 -9 15.8
17:30 1013 29.91 843 24.89 -6.5 20.3 83 -9 15.8
17:35 1013 29.91 843 24.89 -6.5 20.2 82 -9.1 15.6
17:40 1013 29.91 843 24.89 -6.6 20.1 82 -9.2 15.5
17:45 1014 29.94 843 24.89 -6.7 20 82 -9.2 15.4
17:50 1014 29.94 843 24.89 -6.8 19.8 83 -9.3 15.3
17:55 1014 29.94 843 24.89 -6.9 19.7 83 -9.2 15.4
18:00 1014 29.94 843 24.89 -6.9 19.6 83 -9.2 15.4
18:05 1014 29.94 843 24.89 -6.8 19.7 84 -9.2 15.5
18:10 1014 29.94 843 24.89 -6.8 19.7 84 -9.2 15.5
18:15 1014 29.94 843 24.89 -6.9 19.5 84 -9.2 15.4
18:20 1014 29.94 843 24.89 -7 19.4 84 -9.3 15.3
18:25 1014 29.94 843 24.89 -7 19.4 85 -9.2 15.5
18:30 1014 29.94 843 24.89 -7 19.4 85 -9.2 15.5
18:35 1014 29.94 843 24.89 -7 19.4 85 -9.1 15.6
18:40 1014 29.94 843 24.89 -7 19.4 85 -9.1 15.6
18:45 1014 29.94 843 24.89 -7.1 19.3 85 -9.2 15.4
18:50 1014 29.94 843 24.89 -7.1 19.2 85 -9.2 15.4
18:55 1014 29.94 843 24.89 -7.1 19.2 84 -9.3 15.2
19:00 1014 29.94 843 24.89 -7.1 19.2 84 -9.4 15.1
19:05 1014 29.94 843 24.89 -7.2 19.1 84 -9.5 15
19:10 1014 29.94 843 24.89 -7.2 19 84 -9.6 14.8
19:15 1014 29.94 843 24.89 -7.3 18.9 83 -9.6 14.7
19:20 1014 29.94 843 24.89 -7.3 18.8 84 -9.6 14.7
19:25 1014 29.94 843 24.89 -7.3 18.8 83 -9.7 14.6
19:30 1014 29.94 843 24.89 -7.4 18.7 84 -9.6 14.7
19:35 1014 29.94 843 24.89 -7.3 18.8 84 -9.6 14.7
19:40 1014 29.94 844 24.92 -7.4 18.8 84 -9.7 14.6
19:45 1014 29.94 844 24.92 -7.4 18.7 84 -9.7 14.5
19:50 1014 29.94 844 24.92 -7.4 18.7 83 -9.8 14.3
19:55 1014 29.94 844 24.92 -7.5 18.5 83 -10 14.1
20:00 1014 29.94 844 24.92 -7.7 18.2 84 -10 14.1
20:05 1015 29.97 844 24.92 -7.7 18.2 83 -10 14
20:10 1015 29.97 844 24.92 -7.7 18.1 84 -10 14
20:15 1015 29.97 844 24.92 -7.8 17.9 84 -10.1 13.9
20:20 1015 29.97 844 24.92 -7.9 17.9 84 -10.1 13.8
20:25 1015 29.97 844 24.92 -8 17.7 85 -10.1 13.8
20:30 1015 29.97 844 24.92 -8 17.6 85 -10.1 13.7
20:35 1015 29.97 844 24.92 -8 17.6 85 -10.2 13.7
20:40 1015 29.97 844 24.92 -8 17.6 84 -10.2 13.7
20:45 1015 29.97 844 24.92 -8 17.6 85 -10.1 13.8
20:50 1015 29.97 844 24.92 -8 17.6 85 -10.1 13.9
20:55 1015 29.97 844 24.92 -8 17.6 85 -10.1 13.9
21:00 1015 29.97 844 24.92 -8 17.6 85 -10 13.9
21:05 1015 29.97 844 24.92 -8 17.6 85 -10.1 13.9
21:10 1015 29.97 844 24.92 -8 17.6 85 -10 13.9
21:15 1015 29.97 844 24.92 -8 17.6 85 -10 13.9
21:20 1015 29.97 844 24.92 -8 17.7 85 -10 13.9
21:25 1015 29.97 844 24.92 -8.1 17.5 86 -10.1 13.9
21:30 1015 29.97 844 24.92 -8.1 17.5 85 -10.1 13.8
21:35 1015 29.97 844 24.92 -8.1 17.4 85 -10.2 13.7
21:40 1015 29.97 844 24.92 -8.1 17.4 86 -10.1 13.8
21:45 1015 29.97 844 24.92 -8.1 17.4 85 -10.2 13.7
21:50 1015 29.97 844 24.92 -8.1 17.5 85 -10.1 13.8
21:55 1015 29.97 844 24.92 -8.1 17.5 86 -10.1 13.8
22:00 1015 29.97 844 24.92 -8.1 17.5 85 -10.1 13.9
22:05 1015 29.97 844 24.92 -8 17.5 85 -10.1 13.8
22:10 1015 29.97 844 24.92 -8 17.6 85 -10.1 13.9
22:15 1015 29.97 844 24.92 -8 17.5 85 -10.1 13.9
22:20 1015 29.97 844 24.92 -8 17.6 85 -10.1 13.8
22:25 1015 29.97 844 24.92 -8 17.6 85 -10.1 13.8
22:30 1015 29.97 844 24.92 -8 17.6 85 -10.1 13.8
22:35 1015 29.97 844 24.92 -8 17.6 85 -10.1 13.9
22:40 1015 29.97 844 24.92 -8.1 17.5 85 -10.2 13.7
22:45 1015 29.97 844 24.92 -8.2 17.3 85 -10.3 13.4
22:50 1015 29.97 844 24.92 -8.3 17.1 85 -10.3 13.4
22:55 1015 29.97 844 24.92 -8.3 17.1 85 -10.4 13.3
23:00 1015 29.97 844 24.92 -8.4 17 85 -10.5 13.2
23:05 1015 29.97 844 24.92 -8.4 16.9 85 -10.5 13.1
23:10 1015 29.97 844 24.92 -8.5 16.8 85 -10.5 13
23:15 1015 29.97 844 24.92 -8.5 16.6 85 -10.6 12.9
23:20 1015 29.97 844 24.92 -8.6 16.5 85 -10.7 12.7
23:25 1015 29.97 844 24.92 -8.7 16.4 85 -10.7 12.7
23:30 1015 29.97 845 24.95 -8.7 16.4 85 -10.8 12.6
23:35 1015 29.97 845 24.95 -8.7 16.3 85 -10.8 12.5
23:40 1015 29.97 845 24.95 -8.7 16.3 84 -10.9 12.3
23:45 1015 29.97 845 24.95 -8.8 16.2 84 -11 12.3
23:50 1015 29.97 845 24.95 -8.8 16.2 85 -10.9 12.3
23:55 1016 30 845 24.95 -8.8 16.1 85 -10.9 12.4
24:00 1016 30 845 24.95 -8.8 16.1 85 -10.9 12.4